createdAt,value
2022-07-29T00:01:44.501Z,21.74
2022-07-29T00:04:14.130Z,21.76
2022-07-29T00:06:42.961Z,21.79
2022-07-29T00:09:12.689Z,21.77
2022-07-29T00:11:41.264Z,21.75
2022-07-29T00:14:10.351Z,21.75
2022-07-29T00:16:39.030Z,21.77
2022-07-29T00:19:07.907Z,21.74
2022-07-29T00:24:05.190Z,21.73
2022-07-29T00:26:35.002Z,21.85
2022-07-29T00:29:33.021Z,21.91
2022-07-29T00:31:54.292Z,21.73
2022-07-29T00:34:40.425Z,21.69
2022-07-29T00:37:08.843Z,21.62
2022-07-29T00:39:37.277Z,21.54
2022-07-29T00:42:08.893Z,21.53
2022-07-29T00:44:40.028Z,21.61
2022-07-29T00:47:08.974Z,21.60
2022-07-29T00:49:38.247Z,21.65
2022-07-29T00:52:09.048Z,21.65
2022-07-29T00:54:44.076Z,21.70
2022-07-29T00:57:15.038Z,21.74
2022-07-29T00:59:43.476Z,21.72
2022-07-29T01:02:12.170Z,21.82
2022-07-29T01:04:41.000Z,21.88
2022-07-29T01:07:10.065Z,21.90
2022-07-29T01:09:46.251Z,21.90
2022-07-29T01:12:20.508Z,21.84
2022-07-29T01:14:51.325Z,21.81
2022-07-29T01:17:26.655Z,21.73
2022-07-29T01:20:04.517Z,21.88
2022-07-29T01:22:55.193Z,21.91
2022-07-29T01:25:53.271Z,21.93
2022-07-29T01:28:56.813Z,21.93
2022-07-29T01:31:32.085Z,21.96
2022-07-29T01:34:06.634Z,21.88
2022-07-29T01:36:46.274Z,21.86
2022-07-29T01:39:27.113Z,21.83
2022-07-29T01:42:03.319Z,21.82
2022-07-29T01:44:42.142Z,21.87
2022-07-29T01:47:17.879Z,21.77
2022-07-29T01:49:52.716Z,21.75
2022-07-29T01:52:28.208Z,21.68
2022-07-29T01:55:01.091Z,21.60
2022-07-29T01:57:34.050Z,21.59
2022-07-29T02:00:07.413Z,21.52
2022-07-29T02:02:45.703Z,21.44
2022-07-29T02:05:18.440Z,21.36
2022-07-29T02:07:50.103Z,21.28
2022-07-29T02:10:21.988Z,21.26
2022-07-29T02:12:56.829Z,21.14
2022-07-29T02:15:29.000Z,21.08
2022-07-29T02:18:02.563Z,21.08
2022-07-29T02:20:32.949Z,21.02
2022-07-29T02:23:04.687Z,20.96
2022-07-29T02:25:38.080Z,20.94
2022-07-29T02:28:08.598Z,20.86
2022-07-29T02:30:42.554Z,20.82
2022-07-29T02:33:15.703Z,20.85
2022-07-29T02:35:48.266Z,20.74
2022-07-29T02:38:36.681Z,20.71
2022-07-29T02:41:12.456Z,20.76
2022-07-29T02:43:41.747Z,20.68
2022-07-29T02:46:29.060Z,20.71
2022-07-29T02:49:05.124Z,20.66
2022-07-29T02:51:45.079Z,20.65
2022-07-29T02:54:24.894Z,20.63
2022-07-29T02:56:56.603Z,20.58
2022-07-29T02:59:29.210Z,20.61
2022-07-29T03:02:01.647Z,20.60
2022-07-29T03:04:31.114Z,20.51
2022-07-29T03:07:02.304Z,20.54
2022-07-29T03:09:31.984Z,20.53
2022-07-29T03:12:02.792Z,20.48
2022-07-29T03:14:32.241Z,20.53
2022-07-29T03:17:02.732Z,20.55
2022-07-29T03:19:31.512Z,20.53
2022-07-29T03:22:00.889Z,20.52
2022-07-29T03:24:32.140Z,20.37
2022-07-29T03:27:01.170Z,20.30
2022-07-29T03:29:33.894Z,20.18
2022-07-29T03:32:07.191Z,20.22
2022-07-29T03:34:37.808Z,20.15
2022-07-29T03:37:08.050Z,20.11
2022-07-29T03:39:43.009Z,19.89
2022-07-29T03:42:15.092Z,19.81
2022-07-29T03:44:46.795Z,19.77
2022-07-29T03:47:19.777Z,19.61
2022-07-29T03:49:52.865Z,19.51
2022-07-29T03:52:22.221Z,19.62
2022-07-29T03:54:51.506Z,19.54
2022-07-29T03:57:22.779Z,19.39
2022-07-29T03:59:51.812Z,19.30
2022-07-29T04:02:24.461Z,19.15
2022-07-29T04:04:56.095Z,19.03
2022-07-29T04:07:24.538Z,19.11
2022-07-29T04:09:53.066Z,19.03
2022-07-29T04:12:22.048Z,19.00
2022-07-29T04:14:51.197Z,19.09
2022-07-29T04:17:21.064Z,19.20
2022-07-29T04:19:49.530Z,19.09
2022-07-29T04:22:17.955Z,19.11
2022-07-29T04:24:46.406Z,19.07
2022-07-29T04:27:15.079Z,19.13
2022-07-29T04:29:57.015Z,19.07
2022-07-29T04:32:28.286Z,19.21
2022-07-29T04:34:56.773Z,19.14
2022-07-29T04:37:25.122Z,19.07
2022-07-29T04:39:53.465Z,19.12
2022-07-29T04:42:27.804Z,19.10
2022-07-29T04:44:57.705Z,19.13
2022-07-29T04:47:31.257Z,19.09
2022-07-29T04:49:59.961Z,19.16
2022-07-29T04:52:28.524Z,19.29
2022-07-29T04:54:56.879Z,19.33
2022-07-29T04:57:25.367Z,19.26
2022-07-29T04:59:53.796Z,19.28
2022-07-29T05:02:22.911Z,19.28
2022-07-29T05:04:52.759Z,19.60
2022-07-29T05:07:21.267Z,20.17
2022-07-29T05:09:50.120Z,20.52
2022-07-29T05:12:18.691Z,21.02
2022-07-29T05:14:47.134Z,21.36
2022-07-29T05:17:15.676Z,21.69
2022-07-29T05:19:44.039Z,21.95
2022-07-29T05:22:13.913Z,22.10
2022-07-29T05:24:42.492Z,22.51
2022-07-29T05:27:11.509Z,22.54
2022-07-29T05:29:43.794Z,22.63
2022-07-29T05:32:13.829Z,22.75
2022-07-29T05:34:50.783Z,23.00
2022-07-29T05:37:21.933Z,23.05
2022-07-29T05:39:56.867Z,23.12
2022-07-29T05:42:26.786Z,23.29
2022-07-29T05:44:55.549Z,23.17
2022-07-29T05:47:24.484Z,23.27
2022-07-29T05:49:53.156Z,23.31
2022-07-29T05:52:23.741Z,23.36
2022-07-29T05:54:52.153Z,23.73
2022-07-29T05:57:21.978Z,23.69
2022-07-29T05:59:51.298Z,23.61
2022-07-29T06:02:20.525Z,24.21
2022-07-29T06:04:49.707Z,24.40
2022-07-29T06:07:18.355Z,24.76
2022-07-29T06:09:48.253Z,24.70
2022-07-29T06:12:16.755Z,24.67
2022-07-29T06:14:45.208Z,24.43
2022-07-29T06:17:13.719Z,24.62
2022-07-29T06:19:42.277Z,24.79
2022-07-29T06:22:10.763Z,24.65
2022-07-29T06:24:42.427Z,24.10
2022-07-29T06:27:12.394Z,24.52
2022-07-29T06:29:41.426Z,24.47
2022-07-29T06:32:10.194Z,24.85
2022-07-29T06:34:38.743Z,25.20
2022-07-29T06:37:15.346Z,25.49
2022-07-29T06:39:44.286Z,25.82
2022-07-29T06:42:14.083Z,25.92
2022-07-29T06:44:43.843Z,25.81
2022-07-29T06:47:12.312Z,25.68
2022-07-29T06:49:40.827Z,26.02
2022-07-29T06:52:09.253Z,25.90
2022-07-29T06:54:37.674Z,26.25
2022-07-29T06:57:06.369Z,26.44
2022-07-29T06:59:36.275Z,26.19
2022-07-29T07:02:05.020Z,26.35
2022-07-29T07:04:34.439Z,26.76
2022-07-29T07:07:02.909Z,27.42
2022-07-29T07:09:40.662Z,26.81
2022-07-29T07:12:10.003Z,26.22
2022-07-29T07:14:40.821Z,26.76
2022-07-29T07:17:09.417Z,27.17
2022-07-29T07:19:37.936Z,26.61
2022-07-29T07:22:06.360Z,27.01
2022-07-29T07:24:34.800Z,27.21
2022-07-29T07:27:03.268Z,27.20
2022-07-29T07:29:31.726Z,27.32
2022-07-29T07:32:01.680Z,27.51
2022-07-29T07:34:31.106Z,27.28
2022-07-29T07:36:59.584Z,27.54
2022-07-29T07:39:28.162Z,27.66
2022-07-29T07:41:56.703Z,27.68
2022-07-29T07:44:25.097Z,27.09
2022-07-29T07:46:53.605Z,26.58
2022-07-29T07:49:24.734Z,26.82
2022-07-29T07:51:53.609Z,27.93
2022-07-29T07:54:22.101Z,27.88
2022-07-29T07:56:53.338Z,27.86
2022-07-29T07:59:22.061Z,28.32
2022-07-29T08:01:55.568Z,28.08
2022-07-29T08:04:28.482Z,28.82
2022-07-29T08:06:58.664Z,28.48
2022-07-29T08:09:30.373Z,28.52
2022-07-29T08:12:00.209Z,28.79
2022-07-29T08:14:28.666Z,28.92
2022-07-29T08:16:57.070Z,29.01
2022-07-29T08:19:26.952Z,29.12
2022-07-29T08:21:55.934Z,30.17
2022-07-29T08:24:47.586Z,30.48
2022-07-29T08:27:42.002Z,30.06
2022-07-29T08:30:05.881Z,29.86
2022-07-29T08:32:52.427Z,30.46
2022-07-29T08:35:23.791Z,30.53
2022-07-29T08:37:52.395Z,30.20
2022-07-29T08:40:31.894Z,30.02
2022-07-29T08:43:01.845Z,30.77
2022-07-29T08:45:31.780Z,31.87
2022-07-29T08:48:00.935Z,32.78
2022-07-29T08:50:30.989Z,32.51
2022-07-29T08:53:00.441Z,31.25
2022-07-29T08:55:29.940Z,31.72
2022-07-29T08:57:59.007Z,31.47
2022-07-29T09:00:28.397Z,32.02
2022-07-29T09:03:00.801Z,31.66
2022-07-29T09:05:31.160Z,31.56
2022-07-29T09:07:59.863Z,31.23
2022-07-29T09:10:28.585Z,31.32
2022-07-29T09:12:57.288Z,31.04
2022-07-29T09:15:26.494Z,30.88
2022-07-29T09:17:56.350Z,31.47
2022-07-29T09:20:25.333Z,30.74
2022-07-29T09:22:55.339Z,30.88
2022-07-29T09:25:42.937Z,30.80
2022-07-29T09:28:13.648Z,30.81
2022-07-29T09:30:54.054Z,30.45
2022-07-29T09:33:24.401Z,30.91
2022-07-29T09:36:02.456Z,31.67
2022-07-29T09:38:34.370Z,31.63
2022-07-29T09:41:05.787Z,31.32
2022-07-29T09:43:35.827Z,31.58
2022-07-29T09:46:13.491Z,32.14
2022-07-29T09:48:42.400Z,31.94
2022-07-29T09:51:24.117Z,32.05
2022-07-29T09:53:56.836Z,32.18
2022-07-29T09:56:41.488Z,32.09
2022-07-29T09:59:12.235Z,32.17
2022-07-29T10:01:40.705Z,31.67
2022-07-29T10:04:09.270Z,31.75
2022-07-29T10:06:37.729Z,31.43
2022-07-29T10:09:13.994Z,31.08
2022-07-29T10:11:49.671Z,31.08
2022-07-29T10:14:18.557Z,31.41
2022-07-29T10:16:47.063Z,30.65
2022-07-29T10:19:16.469Z,31.65
2022-07-29T10:21:45.863Z,31.82
2022-07-29T10:24:15.880Z,31.49
2022-07-29T10:26:45.707Z,31.32
2022-07-29T10:29:14.377Z,31.09
2022-07-29T10:31:53.065Z,31.69
2022-07-29T10:34:32.528Z,31.92
2022-07-29T10:37:15.290Z,32.02
2022-07-29T10:39:58.574Z,32.12
2022-07-29T10:42:34.507Z,31.97
2022-07-29T10:45:05.094Z,31.21
2022-07-29T10:47:35.338Z,31.95
2022-07-29T10:50:07.372Z,32.32
2022-07-29T10:52:57.958Z,32.25
2022-07-29T10:55:44.560Z,31.86
2022-07-29T10:58:19.381Z,31.32
2022-07-29T11:00:49.692Z,30.68
2022-07-29T11:03:49.442Z,31.37
2022-07-29T11:06:26.338Z,31.06
2022-07-29T11:09:34.832Z,31.03
2022-07-29T11:12:49.486Z,30.48
2022-07-29T11:15:21.828Z,29.89
2022-07-29T11:18:08.084Z,30.58
2022-07-29T11:20:46.731Z,30.54
2022-07-29T11:23:33.774Z,31.23
2022-07-29T11:26:21.202Z,31.14
2022-07-29T11:29:03.742Z,31.01
2022-07-29T11:31:42.508Z,31.04
2022-07-29T11:34:27.793Z,30.15
2022-07-29T11:37:28.001Z,29.82
2022-07-29T11:40:18.414Z,30.40
2022-07-29T11:42:48.742Z,30.02
2022-07-29T11:45:47.730Z,30.10
2022-07-29T11:51:13.316Z,30.17
2022-07-29T11:53:42.350Z,30.05
2022-07-29T11:56:11.381Z,30.01
2022-07-29T11:58:45.437Z,30.08
2022-07-29T12:01:19.771Z,29.87
2022-07-29T12:03:48.267Z,29.71
2022-07-29T12:06:18.321Z,29.91
2022-07-29T12:07:02.107Z,30.25
2022-07-29T12:08:47.660Z,29.72
2022-07-29T12:11:21.748Z,29.97
2022-07-29T12:13:51.701Z,29.80
2022-07-29T12:16:25.390Z,29.61
2022-07-29T12:18:59.818Z,30.14
2022-07-29T12:21:29.340Z,29.64
2022-07-29T12:24:05.791Z,29.61
2022-07-29T12:26:40.381Z,29.76
2022-07-29T12:29:15.689Z,29.09
2022-07-29T12:31:55.078Z,29.01
2022-07-29T12:34:29.225Z,29.10
2022-07-29T12:36:57.934Z,29.30
2022-07-29T12:39:28.766Z,29.13
2022-07-29T12:42:04.618Z,29.08
2022-07-29T12:44:50.008Z,28.55
2022-07-29T12:47:21.575Z,29.06
2022-07-29T12:49:51.404Z,29.45
2022-07-29T12:52:34.462Z,29.24
2022-07-29T12:55:03.501Z,29.17
2022-07-29T12:57:32.946Z,29.36
2022-07-29T13:00:07.574Z,29.31
2022-07-29T13:02:37.770Z,29.28
2022-07-29T13:05:09.271Z,29.13
2022-07-29T13:07:55.254Z,28.97
2022-07-29T13:10:26.023Z,29.21
2022-07-29T13:13:10.388Z,29.04
2022-07-29T13:15:40.517Z,28.98
2022-07-29T13:18:29.839Z,28.94
2022-07-29T13:20:58.715Z,29.24
2022-07-29T13:23:27.114Z,28.67
2022-07-29T13:25:55.493Z,29.11
2022-07-29T13:28:23.976Z,29.07
2022-07-29T13:30:52.470Z,28.87
2022-07-29T13:33:22.293Z,28.93
2022-07-29T13:35:50.710Z,28.98
2022-07-29T13:38:19.289Z,28.66
2022-07-29T13:40:47.801Z,28.32
2022-07-29T13:43:16.444Z,28.51
2022-07-29T13:45:44.930Z,28.62
2022-07-29T13:48:13.305Z,28.61
2022-07-29T13:50:43.103Z,28.15
2022-07-29T13:53:11.539Z,28.73
2022-07-29T13:55:46.549Z,28.84
2022-07-29T13:58:15.712Z,28.79
2022-07-29T14:00:44.161Z,28.29
2022-07-29T14:03:12.552Z,28.35
2022-07-29T14:05:42.399Z,28.27
2022-07-29T14:08:10.844Z,28.55
2022-07-29T14:10:39.321Z,28.58
2022-07-29T14:13:24.606Z,28.34
2022-07-29T14:15:53.956Z,27.98
2022-07-29T14:18:22.437Z,28.18
2022-07-29T14:20:52.669Z,27.84
2022-07-29T14:23:21.099Z,27.91
2022-07-29T14:25:49.674Z,28.11
2022-07-29T14:28:18.216Z,28.14
2022-07-29T14:30:46.715Z,27.97
2022-07-29T14:33:15.179Z,27.98
2022-07-29T14:35:43.625Z,28.03
2022-07-29T14:38:13.497Z,27.84
2022-07-29T14:40:42.039Z,27.93
2022-07-29T14:43:10.481Z,27.82
2022-07-29T14:45:39.013Z,27.71
2022-07-29T14:48:07.858Z,27.74
2022-07-29T14:50:36.365Z,27.75
2022-07-29T14:53:04.988Z,27.52
2022-07-29T14:55:34.763Z,27.50
2022-07-29T14:58:09.837Z,27.43
2022-07-29T15:00:40.595Z,27.25
2022-07-29T15:03:11.121Z,26.98
2022-07-29T15:05:39.854Z,26.88
2022-07-29T15:08:09.142Z,26.78
2022-07-29T15:10:38.985Z,26.88
2022-07-29T15:13:07.464Z,26.88
2022-07-29T15:15:35.869Z,26.95
2022-07-29T15:18:04.646Z,27.14
2022-07-29T15:20:33.185Z,27.07
2022-07-29T15:23:01.663Z,27.18
2022-07-29T15:25:30.076Z,27.30
2022-07-29T15:28:03.219Z,27.28
2022-07-29T15:30:34.410Z,27.51
2022-07-29T15:33:04.160Z,27.47
2022-07-29T15:35:32.900Z,27.27
2022-07-29T15:38:01.449Z,27.44
2022-07-29T15:40:30.109Z,27.53
2022-07-29T15:43:06.453Z,27.58
2022-07-29T15:45:40.488Z,27.68
2022-07-29T15:48:14.713Z,27.82
2022-07-29T15:50:46.946Z,27.82
2022-07-29T15:53:15.956Z,27.76
2022-07-29T15:55:44.363Z,27.75
2022-07-29T15:58:14.552Z,27.89
2022-07-29T16:00:43.069Z,27.82
2022-07-29T16:03:11.638Z,27.96
2022-07-29T16:05:40.160Z,27.99
2022-07-29T16:08:08.590Z,27.93
2022-07-29T16:10:37.069Z,27.74
2022-07-29T16:13:05.789Z,27.78
2022-07-29T16:15:35.619Z,27.47
2022-07-29T16:18:04.152Z,26.88
2022-07-29T16:20:32.553Z,26.33
2022-07-29T16:23:01.697Z,26.08
2022-07-29T16:25:57.627Z,25.84
2022-07-29T16:28:18.631Z,25.67
2022-07-29T16:30:48.421Z,25.37
2022-07-29T16:33:16.856Z,25.26
2022-07-29T16:35:45.368Z,25.28
2022-07-29T16:38:13.770Z,25.31
2022-07-29T16:40:42.231Z,25.38
2022-07-29T16:43:10.886Z,25.49
2022-07-29T16:45:41.859Z,25.35
2022-07-29T16:48:18.046Z,25.17
2022-07-29T16:50:47.187Z,25.06
2022-07-29T16:53:15.858Z,24.96
2022-07-29T16:55:44.386Z,25.01
2022-07-29T16:58:13.024Z,25.26
2022-07-29T17:00:41.693Z,25.05
2022-07-29T17:03:10.221Z,25.15
2022-07-29T17:05:52.680Z,24.99
2022-07-29T17:08:22.895Z,24.76
2022-07-29T17:10:51.666Z,24.45
2022-07-29T17:13:20.345Z,24.45
2022-07-29T17:15:48.864Z,24.40
2022-07-29T17:18:17.395Z,24.44
2022-07-29T17:20:47.248Z,24.46
2022-07-29T17:23:15.738Z,24.45
2022-07-29T17:25:44.133Z,24.42
2022-07-29T17:28:12.489Z,24.31
2022-07-29T17:30:40.921Z,24.09
2022-07-29T17:33:09.385Z,24.01
2022-07-29T17:35:55.205Z,24.06
2022-07-29T17:38:25.138Z,23.78
2022-07-29T17:40:53.554Z,23.82
2022-07-29T17:43:22.062Z,23.90
2022-07-29T17:45:50.963Z,23.85
2022-07-29T17:48:19.813Z,23.85
2022-07-29T17:50:49.611Z,23.88
2022-07-29T17:53:18.521Z,23.71
2022-07-29T17:55:48.834Z,23.70
2022-07-29T17:58:17.921Z,23.80
2022-07-29T18:00:46.367Z,23.95
2022-07-29T18:03:14.975Z,23.80
2022-07-29T18:05:43.742Z,23.86
2022-07-29T18:08:12.957Z,24.01
2022-07-29T18:10:42.414Z,24.19
2022-07-29T18:13:13.266Z,24.04
2022-07-29T18:15:42.268Z,23.49
2022-07-29T18:18:10.781Z,23.04
2022-07-29T18:20:39.553Z,22.42
2022-07-29T18:23:08.321Z,22.11
2022-07-29T18:25:36.995Z,21.94
2022-07-29T18:28:06.486Z,21.96
2022-07-29T18:30:37.860Z,22.04
2022-07-29T18:33:24.286Z,22.09
2022-07-29T18:36:10.090Z,22.27
2022-07-29T18:38:41.161Z,22.47
2022-07-29T18:41:09.538Z,22.41
2022-07-29T18:43:38.092Z,22.37
2022-07-29T18:46:07.969Z,22.27
2022-07-29T18:48:36.728Z,22.26
2022-07-29T18:51:09.323Z,22.28
2022-07-29T18:53:38.542Z,22.37
2022-07-29T18:56:07.107Z,22.42
2022-07-29T18:58:37.120Z,22.36
2022-07-29T19:01:07.275Z,22.38
2022-07-29T19:03:36.571Z,22.35
2022-07-29T19:06:05.450Z,22.34
2022-07-29T19:08:36.050Z,22.34
2022-07-29T19:11:04.581Z,22.30
2022-07-29T19:13:33.211Z,22.36
2022-07-29T19:16:01.890Z,22.30
2022-07-29T19:18:31.778Z,22.28
2022-07-29T19:21:00.263Z,22.38
2022-07-29T19:23:28.649Z,22.39
2022-07-29T19:25:57.237Z,22.39
2022-07-29T19:28:26.522Z,22.32
2022-07-29T19:30:55.101Z,22.33
2022-07-29T19:33:23.644Z,22.18
2022-07-29T19:35:55.059Z,22.14
2022-07-29T19:38:23.737Z,22.07
2022-07-29T19:40:52.373Z,21.97
2022-07-29T19:43:50.480Z,22.03
2022-07-29T19:46:09.668Z,22.06
2022-07-29T19:48:38.243Z,22.07
2022-07-29T19:51:08.125Z,22.13
2022-07-29T19:53:36.761Z,22.07
2022-07-29T19:56:06.362Z,22.09
2022-07-29T19:58:37.549Z,22.06
2022-07-29T20:01:10.490Z,22.05
2022-07-29T20:03:40.734Z,22.01
2022-07-29T20:06:10.589Z,22.07
2022-07-29T20:08:39.164Z,22.08
2022-07-29T20:11:08.066Z,21.95
2022-07-29T20:13:36.772Z,21.84
2022-07-29T20:16:08.294Z,21.73
2022-07-29T20:18:37.289Z,21.72
2022-07-29T20:21:05.883Z,21.73
2022-07-29T20:23:35.705Z,21.67
2022-07-29T20:26:08.712Z,21.68
2022-07-29T20:28:40.198Z,21.69
2022-07-29T20:31:09.114Z,21.62
2022-07-29T20:33:37.751Z,21.54
2022-07-29T20:36:07.343Z,21.50
2022-07-29T20:38:37.204Z,21.51
2022-07-29T20:41:06.016Z,21.57
2022-07-29T20:43:36.116Z,21.49
2022-07-29T20:46:07.782Z,21.39
2022-07-29T20:48:36.418Z,21.38
2022-07-29T20:51:04.945Z,21.34
2022-07-29T20:53:33.859Z,21.32
2022-07-29T20:56:04.160Z,21.33
2022-07-29T20:58:34.063Z,21.27
2022-07-29T21:01:02.866Z,21.25
2022-07-29T21:03:31.559Z,21.28
2022-07-29T21:06:00.969Z,21.38
2022-07-29T21:08:29.824Z,21.36
2022-07-29T21:10:58.582Z,21.41
2022-07-29T21:13:28.656Z,21.39
2022-07-29T21:16:02.602Z,21.41
2022-07-29T21:18:37.305Z,21.44
2022-07-29T21:21:06.814Z,21.22
2022-07-29T21:23:36.073Z,21.15
2022-07-29T21:26:09.821Z,21.12
2022-07-29T21:28:41.665Z,21.06
2022-07-29T21:31:13.535Z,21.04
2022-07-29T21:33:44.363Z,21.01
2022-07-29T21:36:46.574Z,21.01
2022-07-29T21:39:07.066Z,20.92
2022-07-29T21:41:36.435Z,20.99
2022-07-29T21:44:06.319Z,20.94
2022-07-29T21:46:36.531Z,20.93
2022-07-29T21:49:05.118Z,20.95
2022-07-29T21:51:33.680Z,20.97
2022-07-29T21:54:02.148Z,20.97
2022-07-29T21:56:31.593Z,20.94
2022-07-29T21:59:00.837Z,20.94
2022-07-29T22:01:39.432Z,20.91
2022-07-29T22:04:08.089Z,20.87
2022-07-29T22:06:36.575Z,20.80
2022-07-29T22:09:05.449Z,20.85
2022-07-29T22:11:33.990Z,20.91
2022-07-29T22:14:02.390Z,20.82
2022-07-29T22:16:32.328Z,20.77
2022-07-29T22:19:00.853Z,20.69
2022-07-29T22:21:29.389Z,20.69
2022-07-29T22:23:57.807Z,20.75
2022-07-29T22:26:26.350Z,20.69
2022-07-29T22:28:54.817Z,20.65
2022-07-29T22:31:23.500Z,20.63
2022-07-29T22:33:53.910Z,20.61
2022-07-29T22:36:22.420Z,20.52
2022-07-29T22:38:52.117Z,20.46
2022-07-29T22:41:20.857Z,20.46
2022-07-29T22:43:49.293Z,20.32
2022-07-29T22:46:18.059Z,20.36
2022-07-29T22:48:46.717Z,20.36
2022-07-29T22:51:16.575Z,20.34
2022-07-29T22:53:45.128Z,20.33
2022-07-29T22:56:14.042Z,20.37
2022-07-29T22:58:42.488Z,20.30
2022-07-29T23:01:11.141Z,20.48
2022-07-29T23:03:42.098Z,20.50
2022-07-29T23:06:21.354Z,20.47
2022-07-29T23:08:49.748Z,20.52
2022-07-29T23:11:18.399Z,20.46
2022-07-29T23:13:47.047Z,20.39
2022-07-29T23:16:15.569Z,20.43
2022-07-29T23:18:55.761Z,20.46
2022-07-29T23:21:26.309Z,20.55
2022-07-29T23:23:54.804Z,20.48
2022-07-29T23:26:23.443Z,20.45
2022-07-29T23:28:51.968Z,20.37
2022-07-29T23:31:20.746Z,20.42
2022-07-29T23:33:49.206Z,20.52
2022-07-29T23:36:19.684Z,20.45
2022-07-29T23:38:49.703Z,20.52
2022-07-29T23:41:18.280Z,20.59
2022-07-29T23:43:46.690Z,20.54
2022-07-29T23:46:15.421Z,20.51
2022-07-29T23:48:43.888Z,20.40
2022-07-29T23:51:12.483Z,20.50
2022-07-29T23:53:53.654Z,20.53
2022-07-29T23:56:24.207Z,20.53
2022-07-29T23:58:52.680Z,20.60
